createdAt,value
2023-01-17T00:02:26.178Z,118.83
2023-01-17T00:05:11.439Z,116.17
2023-01-17T00:07:56.747Z,114.53
2023-01-17T00:10:26.517Z,104.53
2023-01-17T00:12:57.621Z,121.80
2023-01-17T00:15:26.510Z,127.13
2023-01-17T00:17:54.737Z,109.10
2023-01-17T00:20:42.164Z,110.60
2023-01-17T00:23:33.118Z,105.53
2023-01-17T00:26:03.996Z,110.10
2023-01-17T00:28:34.123Z,113.47
2023-01-17T00:31:01.263Z,118.20
2023-01-17T00:33:28.146Z,108.13
2023-01-17T00:35:57.337Z,109.20
2023-01-17T00:38:25.433Z,102.33
2023-01-17T00:40:52.654Z,93.90
2023-01-17T00:43:40.377Z,104.50
2023-01-17T00:46:26.903Z,99.90
2023-01-17T00:49:12.039Z,88.43
2023-01-17T00:51:57.471Z,97.13
2023-01-17T00:54:42.607Z,90.90
2023-01-17T00:57:28.124Z,93.17
2023-01-17T01:00:13.306Z,92.60
2023-01-17T01:02:59.822Z,90.10
2023-01-17T01:05:45.009Z,87.40
2023-01-17T01:08:38.343Z,114.77
2023-01-17T01:11:25.736Z,98.63
2023-01-17T01:14:10.979Z,110.73
2023-01-17T01:16:56.249Z,102.27
2023-01-17T01:19:43.290Z,104.93
2023-01-17T01:22:28.607Z,115.00
2023-01-17T01:25:13.771Z,108.33
2023-01-17T01:27:59.026Z,103.73
2023-01-17T01:30:44.592Z,103.87
2023-01-17T01:33:18.743Z,101.73
2023-01-17T01:35:49.282Z,106.90
2023-01-17T01:38:17.020Z,106.80
2023-01-17T01:40:46.606Z,116.50
2023-01-17T01:43:16.282Z,114.50
2023-01-17T01:45:49.356Z,111.80
2023-01-17T01:48:34.495Z,108.43
2023-01-17T01:51:06.817Z,99.93
2023-01-17T01:53:38.188Z,103.83
2023-01-17T01:56:10.372Z,102.63
2023-01-17T01:58:39.064Z,101.47
2023-01-17T02:01:09.206Z,102.47
2023-01-17T02:03:40.738Z,99.03
2023-01-17T02:06:28.242Z,101.20
2023-01-17T02:08:58.989Z,94.40
2023-01-17T02:11:27.279Z,87.63
2023-01-17T02:13:55.056Z,97.83
2023-01-17T02:16:39.158Z,95.80
2023-01-17T02:19:31.092Z,81.97
2023-01-17T02:22:14.755Z,79.47
2023-01-17T02:25:07.889Z,83.97
2023-01-17T02:27:54.503Z,79.60
2023-01-17T02:30:34.176Z,88.57
2023-01-17T02:33:13.263Z,97.63
2023-01-17T02:35:49.273Z,98.33
2023-01-17T02:38:28.621Z,102.90
2023-01-17T02:41:02.322Z,103.10
2023-01-17T02:43:30.283Z,95.63
2023-01-17T02:45:59.304Z,93.13
2023-01-17T02:48:31.313Z,90.90
2023-01-17T02:51:31.703Z,91.10
2023-01-17T02:54:15.044Z,83.67
2023-01-17T02:56:53.054Z,82.43
2023-01-17T02:59:33.992Z,79.33
2023-01-17T03:02:11.941Z,75.13
2023-01-17T03:04:45.416Z,80.93
2023-01-17T03:07:17.519Z,87.43
2023-01-17T03:09:47.537Z,83.93
2023-01-17T03:12:15.370Z,77.63
2023-01-17T03:14:43.038Z,82.80
2023-01-17T03:17:12.144Z,76.90
2023-01-17T03:19:40.001Z,96.60
2023-01-17T03:22:07.751Z,78.00
2023-01-17T03:24:35.361Z,81.20
2023-01-17T03:27:02.996Z,87.13
2023-01-17T03:29:30.733Z,83.27
2023-01-17T03:31:58.337Z,89.07
2023-01-17T03:34:27.364Z,85.37
2023-01-17T03:36:55.031Z,89.10
2023-01-17T03:39:22.657Z,93.50
2023-01-17T03:41:50.345Z,95.90
2023-01-17T03:44:19.130Z,81.43
2023-01-17T03:46:46.762Z,76.27
2023-01-17T03:49:14.395Z,76.87
2023-01-17T03:51:43.709Z,78.00
2023-01-17T03:54:11.548Z,71.40
2023-01-17T03:56:39.176Z,66.23
2023-01-17T03:59:06.814Z,72.43
2023-01-17T04:01:34.620Z,72.40
2023-01-17T04:04:02.428Z,71.10
2023-01-17T04:06:30.154Z,70.90
2023-01-17T04:08:59.157Z,82.23
2023-01-17T04:11:26.864Z,73.03
2023-01-17T04:13:55.188Z,77.10
2023-01-17T04:16:26.551Z,84.30
2023-01-17T04:18:54.275Z,65.20
2023-01-17T04:21:22.152Z,69.67
2023-01-17T04:23:50.071Z,74.63
2023-01-17T04:26:19.037Z,74.90
2023-01-17T04:28:46.784Z,75.93
2023-01-17T04:31:16.983Z,65.87
2023-01-17T04:33:44.777Z,68.17
2023-01-17T04:36:12.518Z,72.93
2023-01-17T04:38:40.437Z,73.90
2023-01-17T04:41:08.165Z,74.17
2023-01-17T04:43:37.227Z,72.77
2023-01-17T04:46:09.868Z,79.03
2023-01-17T04:48:38.235Z,78.97
2023-01-17T04:51:07.064Z,78.77
2023-01-17T04:53:34.854Z,76.17
2023-01-17T04:56:02.924Z,88.43
2023-01-17T04:58:31.115Z,81.30
2023-01-17T05:01:04.120Z,86.47
2023-01-17T05:03:32.347Z,80.90
2023-01-17T05:06:00.176Z,78.97
2023-01-17T05:08:28.106Z,76.53
2023-01-17T05:10:55.765Z,86.43
2023-01-17T05:13:23.445Z,83.10
2023-01-17T05:15:51.313Z,82.10
2023-01-17T05:18:20.357Z,85.63
2023-01-17T05:20:47.974Z,82.00
2023-01-17T05:23:15.583Z,87.83
2023-01-17T05:25:44.276Z,88.57
2023-01-17T05:28:13.448Z,89.63
2023-01-17T05:30:41.602Z,83.93
2023-01-17T05:33:10.196Z,91.27
2023-01-17T05:35:39.267Z,85.33
2023-01-17T05:38:06.995Z,76.83
2023-01-17T05:40:34.963Z,78.23
2023-01-17T05:43:04.028Z,81.17
2023-01-17T05:45:33.578Z,80.00
2023-01-17T05:48:01.433Z,94.50
2023-01-17T05:50:30.707Z,102.30
2023-01-17T05:53:01.676Z,99.23
2023-01-17T05:55:30.854Z,100.03
2023-01-17T05:57:59.481Z,102.60
2023-01-17T06:00:27.502Z,91.63
2023-01-17T06:02:55.961Z,87.67
2023-01-17T06:05:24.657Z,93.70
2023-01-17T06:07:52.394Z,93.63
2023-01-17T06:10:23.127Z,83.20
2023-01-17T06:12:51.363Z,87.67
2023-01-17T06:15:19.452Z,88.23
2023-01-17T06:17:47.091Z,90.17
2023-01-17T06:20:14.724Z,79.77
2023-01-17T06:22:42.388Z,84.50
2023-01-17T06:25:10.808Z,86.00
2023-01-17T06:27:39.753Z,79.30
2023-01-17T06:30:08.727Z,79.20
2023-01-17T06:32:36.373Z,78.53
2023-01-17T06:35:04.043Z,83.17
2023-01-17T06:37:31.759Z,82.27
2023-01-17T06:39:59.376Z,80.73
2023-01-17T06:42:26.987Z,87.83
2023-01-17T06:44:56.026Z,90.07
2023-01-17T06:47:24.018Z,91.27
2023-01-17T06:49:51.691Z,75.30
2023-01-17T06:52:19.306Z,86.33
2023-01-17T06:54:47.044Z,79.73
2023-01-17T06:57:14.681Z,80.53
2023-01-17T06:59:42.324Z,84.33
2023-01-17T07:02:12.280Z,79.33
2023-01-17T07:04:39.944Z,81.37
2023-01-17T07:07:07.601Z,77.23
2023-01-17T07:09:35.284Z,79.80
2023-01-17T07:12:03.716Z,80.17
2023-01-17T07:14:31.416Z,74.00
2023-01-17T07:16:59.079Z,77.40
2023-01-17T07:19:28.067Z,75.60
2023-01-17T07:21:55.802Z,84.90
2023-01-17T07:24:23.462Z,73.33
2023-01-17T07:26:51.543Z,73.03
2023-01-17T07:29:19.786Z,71.33
2023-01-17T07:31:49.980Z,70.23
2023-01-17T07:34:17.751Z,64.57
2023-01-17T07:36:48.481Z,65.50
2023-01-17T07:39:16.278Z,68.53
2023-01-17T07:41:43.895Z,61.20
2023-01-17T07:44:12.959Z,70.23
2023-01-17T07:46:40.865Z,70.50
2023-01-17T07:49:08.491Z,68.33
2023-01-17T07:51:36.142Z,62.47
2023-01-17T07:54:05.723Z,66.43
2023-01-17T07:56:34.729Z,74.13
2023-01-17T07:59:02.739Z,66.07
2023-01-17T08:01:31.235Z,60.10
2023-01-17T08:03:59.015Z,63.17
2023-01-17T08:06:27.687Z,58.33
2023-01-17T08:08:58.719Z,58.07
2023-01-17T08:11:27.924Z,59.60
2023-01-17T08:13:59.156Z,61.17
2023-01-17T08:16:28.600Z,54.97
2023-01-17T08:18:56.732Z,56.53
2023-01-17T08:21:25.235Z,57.37
2023-01-17T08:23:53.221Z,54.27
2023-01-17T08:26:22.594Z,57.17
2023-01-17T08:28:55.958Z,56.83
2023-01-17T08:31:25.549Z,58.37
2023-01-17T08:33:53.414Z,57.77
2023-01-17T08:36:21.063Z,57.93
2023-01-17T08:38:52.607Z,55.73
2023-01-17T08:41:20.881Z,55.63
2023-01-17T08:43:49.385Z,55.87
2023-01-17T08:46:19.179Z,59.93
2023-01-17T08:48:47.198Z,51.30
2023-01-17T08:51:15.029Z,55.87
2023-01-17T08:53:43.181Z,57.60
2023-01-17T08:56:10.860Z,63.07
2023-01-17T08:58:38.503Z,53.17
2023-01-17T09:01:07.034Z,58.03
2023-01-17T09:03:38.314Z,58.67
2023-01-17T09:06:08.853Z,50.53
2023-01-17T09:08:37.967Z,54.63
2023-01-17T09:11:06.538Z,53.43
2023-01-17T09:13:34.252Z,57.50
2023-01-17T09:16:02.361Z,56.80
2023-01-17T09:18:32.044Z,61.23
2023-01-17T09:21:09.834Z,70.83
2023-01-17T09:23:37.539Z,67.80
2023-01-17T09:26:05.407Z,65.93
2023-01-17T09:28:39.547Z,75.50
2023-01-17T09:31:08.231Z,74.17
2023-01-17T09:33:36.167Z,75.63
2023-01-17T09:36:05.819Z,82.27
2023-01-17T09:38:34.027Z,93.13
2023-01-17T09:41:03.199Z,95.37
2023-01-17T09:43:41.065Z,87.20
2023-01-17T09:46:22.752Z,89.20
2023-01-17T09:48:54.830Z,101.60
2023-01-17T09:51:25.194Z,112.43
2023-01-17T09:53:54.598Z,123.47
2023-01-17T09:56:29.441Z,117.17
2023-01-17T09:59:16.804Z,103.40
2023-01-17T10:01:51.757Z,110.33
2023-01-17T10:04:34.862Z,108.17
2023-01-17T10:07:14.262Z,108.30
2023-01-17T10:10:04.614Z,106.10
2023-01-17T10:12:40.863Z,111.40
2023-01-17T10:15:27.962Z,113.93
2023-01-17T10:18:04.508Z,113.57
2023-01-17T10:20:47.544Z,117.63
2023-01-17T10:23:34.185Z,126.00
2023-01-17T10:26:03.874Z,120.77
2023-01-17T10:28:36.980Z,109.27
2023-01-17T10:31:08.694Z,106.50
2023-01-17T10:33:41.337Z,107.13
2023-01-17T10:36:15.711Z,127.47
2023-01-17T10:38:47.848Z,115.97
2023-01-17T10:41:19.252Z,132.77
2023-01-17T10:43:56.192Z,139.90
2023-01-17T10:46:28.694Z,122.73
2023-01-17T10:48:57.507Z,141.43
2023-01-17T10:51:43.837Z,166.03
2023-01-17T10:54:24.840Z,149.70
2023-01-17T10:56:53.002Z,152.67
2023-01-17T10:59:30.340Z,168.93
2023-01-17T11:01:58.170Z,177.90
2023-01-17T11:04:33.601Z,173.87
2023-01-17T11:07:12.965Z,164.73
2023-01-17T11:09:43.692Z,164.10
2023-01-17T11:12:21.912Z,188.80
2023-01-17T11:14:58.649Z,187.97
2023-01-17T11:17:27.525Z,165.83
2023-01-17T11:19:55.619Z,183.13
2023-01-17T11:22:24.877Z,193.00
2023-01-17T11:24:56.073Z,191.50
2023-01-17T11:27:28.285Z,191.23
2023-01-17T11:30:15.740Z,187.00
2023-01-17T11:32:52.974Z,188.20
2023-01-17T11:35:25.400Z,179.13
2023-01-17T11:38:04.400Z,178.30
2023-01-17T11:40:38.720Z,174.53
2023-01-17T11:43:19.927Z,172.50
2023-01-17T11:46:00.550Z,171.23
2023-01-17T11:48:36.083Z,173.30
2023-01-17T11:51:05.578Z,177.83
2023-01-17T11:53:37.481Z,172.53
2023-01-17T11:56:09.955Z,187.73
2023-01-17T11:58:40.843Z,177.93
2023-01-17T12:01:31.208Z,178.90
2023-01-17T12:04:15.706Z,184.00
2023-01-17T12:06:57.536Z,176.87
2023-01-17T12:09:34.083Z,191.73
2023-01-17T12:12:29.889Z,192.63
2023-01-17T12:15:07.254Z,183.70
2023-01-17T12:17:53.694Z,194.70
2023-01-17T12:20:28.860Z,195.50
2023-01-17T12:23:25.449Z,202.70
2023-01-17T12:26:10.328Z,209.70
2023-01-17T12:28:58.417Z,205.27
2023-01-17T12:31:33.560Z,203.23
2023-01-17T12:34:15.501Z,206.93
2023-01-17T12:36:48.528Z,216.47
2023-01-17T12:39:20.145Z,199.67
2023-01-17T12:41:58.682Z,201.80
2023-01-17T12:44:40.970Z,202.27
2023-01-17T12:47:08.666Z,206.27
2023-01-17T12:49:43.818Z,206.40
2023-01-17T12:52:20.158Z,223.77
2023-01-17T12:54:52.491Z,195.43
2023-01-17T12:57:24.435Z,204.57
2023-01-17T12:59:59.262Z,220.07
2023-01-17T13:02:37.136Z,207.23
2023-01-17T13:05:10.584Z,190.97
2023-01-17T13:07:47.150Z,189.00
2023-01-17T13:10:32.066Z,187.27
2023-01-17T13:13:22.456Z,169.33
2023-01-17T13:16:18.898Z,169.67
2023-01-17T13:19:16.242Z,170.97
2023-01-17T13:22:07.849Z,151.37
2023-01-17T13:25:07.360Z,157.20
2023-01-17T13:28:22.746Z,154.83
2023-01-17T13:31:35.636Z,153.87
2023-01-17T13:34:47.252Z,159.53
2023-01-17T13:37:52.235Z,149.83
2023-01-17T13:40:50.540Z,148.83
2023-01-17T13:43:41.354Z,148.63
2023-01-17T13:46:32.731Z,155.33
2023-01-17T13:49:34.109Z,149.43
2023-01-17T13:52:35.684Z,161.80
2023-01-17T13:55:46.507Z,149.40
2023-01-17T13:58:58.250Z,159.60
2023-01-17T14:01:54.696Z,150.87
2023-01-17T14:05:08.717Z,166.80
2023-01-17T14:07:59.665Z,152.77
2023-01-17T14:10:49.824Z,161.20
2023-01-17T14:13:39.654Z,149.60
2023-01-17T14:16:31.241Z,141.50
2023-01-17T14:19:27.807Z,158.00
2023-01-17T14:22:24.696Z,148.30
2023-01-17T14:25:18.004Z,166.00
2023-01-17T14:28:20.003Z,163.03
2023-01-17T14:31:11.460Z,145.87
2023-01-17T14:34:12.473Z,150.57
2023-01-17T14:37:19.110Z,154.53
2023-01-17T14:40:19.140Z,149.40
2023-01-17T14:43:11.908Z,149.30
2023-01-17T14:46:02.843Z,136.10
2023-01-17T14:48:51.602Z,153.80
2023-01-17T14:51:39.544Z,149.83
2023-01-17T14:54:28.887Z,154.10
2023-01-17T14:57:25.321Z,150.30
2023-01-17T15:00:20.132Z,152.50
2023-01-17T15:03:12.090Z,149.87
2023-01-17T15:06:11.306Z,163.73
2023-01-17T15:09:03.220Z,151.03
2023-01-17T15:11:54.081Z,146.63
2023-01-17T15:14:45.334Z,143.57
2023-01-17T15:17:33.356Z,147.37
2023-01-17T15:20:21.873Z,158.60
2023-01-17T15:23:18.154Z,151.47
2023-01-17T15:26:10.922Z,147.03
2023-01-17T15:29:05.483Z,148.13
2023-01-17T15:31:55.009Z,141.87
2023-01-17T15:34:46.485Z,143.87
2023-01-17T15:37:36.763Z,141.23
2023-01-17T15:40:27.900Z,134.80
2023-01-17T15:43:21.502Z,132.53
2023-01-17T15:46:24.146Z,130.77
2023-01-17T15:49:18.052Z,127.97
2023-01-17T15:52:16.308Z,126.63
2023-01-17T15:55:13.728Z,116.60
2023-01-17T15:58:02.269Z,120.97
2023-01-17T16:00:50.291Z,112.83
2023-01-17T16:03:39.542Z,113.47
2023-01-17T16:06:45.305Z,121.70
2023-01-17T16:09:43.874Z,110.50
2023-01-17T16:12:31.763Z,119.30
2023-01-17T16:15:20.434Z,110.80
2023-01-17T16:18:16.737Z,128.37
2023-01-17T16:21:18.578Z,116.83
2023-01-17T16:24:10.708Z,122.73
2023-01-17T16:26:58.917Z,121.57
2023-01-17T16:29:46.986Z,124.63
2023-01-17T16:32:34.937Z,135.87
2023-01-17T16:35:24.411Z,124.23
2023-01-17T16:38:16.067Z,130.47
2023-01-17T16:41:05.363Z,131.80
2023-01-17T16:43:59.495Z,137.47
2023-01-17T16:46:47.438Z,131.17
2023-01-17T16:49:35.528Z,127.53
2023-01-17T16:52:23.416Z,131.53
2023-01-17T16:55:15.956Z,128.43
2023-01-17T16:58:04.106Z,118.30
2023-01-17T17:00:52.208Z,127.10
2023-01-17T17:03:41.052Z,125.33
2023-01-17T17:06:31.024Z,132.03
2023-01-17T17:09:21.357Z,131.13
2023-01-17T17:12:10.683Z,129.83
2023-01-17T17:14:58.619Z,127.97
2023-01-17T17:17:48.015Z,125.07
2023-01-17T17:20:35.949Z,121.20
2023-01-17T17:23:23.862Z,115.90
2023-01-17T17:26:11.764Z,131.40
2023-01-17T17:29:01.540Z,123.80
2023-01-17T17:31:49.460Z,127.83
2023-01-17T17:34:38.254Z,129.30
2023-01-17T17:37:28.932Z,121.27
2023-01-17T17:40:17.394Z,111.87
2023-01-17T17:43:05.326Z,124.23
2023-01-17T17:45:54.573Z,116.20
2023-01-17T17:48:42.467Z,136.83
2023-01-17T17:51:32.496Z,123.40
2023-01-17T17:54:22.014Z,126.60
2023-01-17T17:57:10.377Z,110.87
2023-01-17T17:59:59.716Z,132.07
2023-01-17T18:02:49.044Z,126.53
2023-01-17T18:05:36.975Z,133.10
2023-01-17T18:08:24.890Z,122.43
2023-01-17T18:11:18.299Z,123.00
2023-01-17T18:14:09.334Z,125.97
2023-01-17T18:16:57.535Z,124.27
2023-01-17T18:19:47.022Z,129.13
2023-01-17T18:22:34.944Z,134.27
2023-01-17T18:25:22.885Z,129.37
2023-01-17T18:28:10.829Z,137.07
2023-01-17T18:30:58.952Z,130.70
2023-01-17T18:33:46.966Z,132.73
2023-01-17T18:36:36.685Z,137.00
2023-01-17T18:39:26.541Z,130.60
2023-01-17T18:42:14.488Z,134.97
2023-01-17T18:45:02.459Z,126.57
2023-01-17T18:47:50.361Z,128.27
2023-01-17T18:50:38.278Z,123.07
2023-01-17T18:53:28.299Z,126.33
2023-01-17T18:56:19.447Z,121.40
2023-01-17T18:59:08.899Z,130.77
2023-01-17T19:01:56.868Z,120.40
2023-01-17T19:04:44.898Z,114.27
2023-01-17T19:07:33.160Z,121.17
2023-01-17T19:10:22.408Z,108.07
2023-01-17T19:13:10.641Z,116.33
2023-01-17T19:16:00.791Z,115.60
2023-01-17T19:18:48.703Z,119.03
2023-01-17T19:21:37.080Z,108.33
2023-01-17T19:24:25.658Z,118.80
2023-01-17T19:27:14.960Z,127.83
2023-01-17T19:30:02.933Z,120.30
2023-01-17T19:32:51.329Z,126.27
2023-01-17T19:35:39.268Z,117.80
2023-01-17T19:38:27.208Z,126.63
2023-01-17T19:41:17.706Z,115.47
2023-01-17T19:44:09.168Z,115.07
2023-01-17T19:46:57.334Z,110.30
2023-01-17T19:49:45.589Z,115.37
2023-01-17T19:52:33.538Z,117.50
2023-01-17T19:55:25.619Z,120.40
2023-01-17T19:58:13.827Z,114.60
2023-01-17T20:01:14.245Z,119.00
2023-01-17T20:04:03.200Z,107.73
2023-01-17T20:06:51.099Z,115.63
2023-01-17T20:09:39.077Z,106.67
2023-01-17T20:12:27.217Z,119.53
2023-01-17T20:15:15.138Z,120.07
2023-01-17T20:18:04.751Z,116.17
2023-01-17T20:20:57.412Z,118.83
2023-01-17T20:23:47.796Z,124.37
2023-01-17T20:26:36.320Z,122.63
2023-01-17T20:29:24.631Z,128.33
2023-01-17T20:32:12.558Z,127.07
2023-01-17T20:35:01.813Z,138.53
2023-01-17T20:37:52.115Z,128.60
2023-01-17T20:40:41.005Z,122.97
2023-01-17T20:43:28.909Z,133.50
2023-01-17T20:46:17.792Z,132.80
2023-01-17T20:49:07.533Z,122.47
2023-01-17T20:51:57.845Z,127.03
2023-01-17T20:54:45.722Z,129.10
2023-01-17T20:57:34.211Z,123.73
2023-01-17T21:00:22.716Z,124.40
2023-01-17T21:03:10.620Z,123.83
2023-01-17T21:06:02.651Z,130.80
2023-01-17T21:08:52.858Z,126.70
2023-01-17T21:11:40.875Z,124.47
2023-01-17T21:14:28.996Z,126.57
2023-01-17T21:17:16.994Z,126.57
2023-01-17T21:20:07.983Z,135.60
2023-01-17T21:22:56.100Z,128.47
2023-01-17T21:25:56.253Z,119.23
2023-01-17T21:28:46.011Z,125.00
2023-01-17T21:31:35.576Z,127.13
2023-01-17T21:34:25.436Z,130.70
2023-01-17T21:37:13.549Z,141.70
2023-01-17T21:40:03.109Z,127.17
2023-01-17T21:42:54.264Z,124.53
2023-01-17T21:45:42.937Z,133.53
2023-01-17T21:48:31.065Z,120.93
2023-01-17T21:51:21.641Z,131.17
2023-01-17T21:54:09.612Z,130.70
2023-01-17T21:57:15.063Z,129.87
2023-01-17T22:00:06.210Z,127.30
2023-01-17T22:02:59.479Z,124.80
2023-01-17T22:05:47.373Z,123.13
2023-01-17T22:08:36.146Z,124.27
2023-01-17T22:11:25.792Z,143.57
2023-01-17T22:14:13.774Z,125.23
2023-01-17T22:17:03.006Z,134.63
2023-01-17T22:19:50.895Z,129.97
2023-01-17T22:22:38.830Z,129.70
2023-01-17T22:25:26.893Z,133.50
2023-01-17T22:28:14.808Z,126.77
2023-01-17T22:31:11.529Z,137.07
2023-01-17T22:34:02.625Z,133.70
2023-01-17T22:36:50.569Z,136.47
2023-01-17T22:39:38.686Z,137.43
2023-01-17T22:42:26.587Z,137.60
2023-01-17T22:45:14.752Z,134.03
2023-01-17T22:48:02.695Z,141.33
2023-01-17T22:50:51.988Z,133.67
2023-01-17T22:53:41.249Z,128.73
2023-01-17T22:56:31.660Z,129.97
2023-01-17T22:59:19.596Z,133.20
2023-01-17T23:02:07.525Z,128.30
2023-01-17T23:04:55.468Z,127.87
2023-01-17T23:07:44.771Z,135.93
2023-01-17T23:10:50.431Z,135.57
2023-01-17T23:13:38.611Z,127.50
2023-01-17T23:16:44.307Z,111.83
2023-01-17T23:19:34.869Z,115.00
2023-01-17T23:22:24.487Z,117.17
2023-01-17T23:25:14.835Z,134.73
2023-01-17T23:28:11.037Z,126.90
2023-01-17T23:31:04.051Z,123.90
2023-01-17T23:33:51.999Z,128.63
2023-01-17T23:36:39.955Z,124.13
2023-01-17T23:39:28.629Z,133.10
2023-01-17T23:42:35.568Z,122.53
2023-01-17T23:45:23.512Z,133.17
2023-01-17T23:48:11.672Z,123.93
2023-01-17T23:51:02.225Z,122.33
2023-01-17T23:53:53.324Z,115.20
2023-01-17T23:56:41.294Z,128.93
2023-01-17T23:59:30.570Z,124.43
